Time;durP1;ratioP1;P1;durP2;ratioP2;P2;SDS_P1;SDS_P2;PMS_P1;PMS_P2;Temp;Humidity;BMP_temperature;BMP_pressure;BME280_temperature;BME280_humidity;BME280_pressure;Samples;Min_cycle;Max_cycle;Signal;HPM_P1;HPM_P2
2022/11/12 00:00:12;;;;;;;;;;;;;;;;;;6250807;22;19915;-87
2022/11/12 00:02:38;;;;;;;;;;;;;;;;;;6225656;22;19915;-87
2022/11/12 00:05:04;;;;;;;;;;;;;;;;;;6225782;22;20363;-87
2022/11/12 00:07:30;;;;;;;;;;;;;;;;;;6225220;22;19919;-87
2022/11/12 00:09:56;;;;;;;;;;;;;;;;;;6225732;22;19986;-87
2022/11/12 00:12:22;;;;;;;;;;;;;;;;;;6252873;22;20031;-88
2022/11/12 00:14:48;;;;;;;;;;;;;;;;;;6253598;22;19915;-88
2022/11/12 00:17:14;;;;;;;;;;;;;;;;;;6227092;22;20325;-89
2022/11/12 00:19:39;;;;;;;;;;;;;;;;;;6227769;22;19982;-88
2022/11/12 00:22:05;;;;;;;;;;;;;;;;;;6227656;22;19942;-89
2022/11/12 00:24:31;;;;;;;;;;;;;;;;;;6227486;22;19911;-89
2022/11/12 00:26:57;;;;;;;;;;;;;;;;;;6226471;22;19915;-90
2022/11/12 00:29:23;;;;;;;;;;;;;;;;;;6225112;22;20244;-88
2022/11/12 00:31:49;;;;;;;;;;;;;;;;;;6249883;22;19911;-87
2022/11/12 00:34:15;;;;;;;;;;;;;;;;;;6249782;22;19981;-88
2022/11/12 00:36:41;;;;;;;;;;;;;;;;;;6249609;22;19915;-87
2022/11/12 00:39:07;;;;;;;;;;;;;;;;;;6224479;22;19911;-87
2022/11/12 00:41:32;;;;;;;;;;;;;;;;;;6224626;22;20237;-88
2022/11/12 00:43:58;;;;;;;;;;;;;;;;;;6224289;22;19911;-87
2022/11/12 00:46:24;;;;;;;;;;;;;;;;;;6224423;22;19911;-87
2022/11/12 00:48:51;;;;;;;;;;;;;;;;;;6224194;22;19977;-87
2022/11/12 00:51:17;;;;;;;;;;;;;;;;;;6224293;22;19986;-88
2022/11/12 00:53:43;;;;;;;;;;;;;;;;;;6224288;22;19953;-88
2022/11/12 00:56:09;;;;;;;;;;;;;;;;;;6224303;22;19911;-88
2022/11/12 00:58:35;;;;;;;;;;;;;;;;;;6249648;22;19911;-88
2022/11/12 01:01:01;;;;;;;;;;;;;;;;;;6218534;23;20249;-88
2022/11/12 01:03:27;;;;;;;;;;;;;;;;;;6219157;23;19916;-88
2022/11/12 01:05:53;;;;;;;;;;;;;;;;;;6193934;23;20330;-87
2022/11/12 01:08:19;;;;;;;;;;;;;;;;;;6218900;23;20382;-88
2022/11/12 01:10:45;;;;;;;;;;;;;;;;;;6193872;23;19911;-88
2022/11/12 01:13:11;;;;;;;;;;;;;;;;;;6219216;23;19934;-87
2022/11/12 01:15:36;;;;;;;;;;;;;;;;;;6219021;23;19990;-88
2022/11/12 01:18:02;;;;;;;;;;;;;;;;;;6194159;23;19916;-88
2022/11/12 01:20:28;;;;;;;;;;;;;;;;;;6219045;23;19912;-88
2022/11/12 01:22:54;;;;;;;;;;;;;;;;;;6235031;23;19918;-86
2022/11/12 01:25:20;;;;;;;;;;;;;;;;;;6240032;23;19911;-88
2022/11/12 01:27:46;;;;;;;;;;;;;;;;;;6193863;23;19990;-87
2022/11/12 01:30:12;;;;;;;;;;;;;;;;;;6219197;23;19912;-87
2022/11/12 01:32:38;;;;;;;;;;;;;;;;;;6219373;23;19912;-88
2022/11/12 01:35:04;;;;;;;;;;;;;;;;;;6193703;23;19911;-87
2022/11/12 01:37:30;;;;;;;;;;;;;;;;;;6218720;23;19915;-87
2022/11/12 01:39:56;;;;;;;;;;;;;;;;;;6193779;23;19915;-87
2022/11/12 01:42:21;;;;;;;;;;;;;;;;;;6193590;23;20312;-88
2022/11/12 01:44:47;;;;;;;;;;;;;;;;;;6193947;23;19995;-87
2022/11/12 01:47:13;;;;;;;;;;;;;;;;;;6193832;23;19911;-87
2022/11/12 01:49:39;;;;;;;;;;;;;;;;;;6193350;23;20309;-87
2022/11/12 01:52:05;;;;;;;;;;;;;;;;;;6224671;23;19911;-87
2022/11/12 01:54:31;;;;;;;;;;;;;;;;;;6218975;23;19954;-87
2022/11/12 01:56:57;;;;;;;;;;;;;;;;;;6193254;23;19998;-88
2022/11/12 01:59:23;;;;;;;;;;;;;;;;;;6194069;23;20063;-88
2022/11/12 02:01:49;;;;;;;;;;;;;;;;;;6219748;22;19986;-88
2022/11/12 02:04:14;;;;;;;;;;;;;;;;;;6223737;22;20029;-88
2022/11/12 02:06:40;;;;;;;;;;;;;;;;;;6223606;22;19990;-87
2022/11/12 02:09:06;;;;;;;;;;;;;;;;;;6248892;22;19947;-87
2022/11/12 02:11:32;;;;;;;;;;;;;;;;;;6223428;22;19957;-88
2022/11/12 02:14:00;;;;;;;;;;;;;;;;;;6249292;22;19911;-88
2022/11/12 02:16:26;;;;;;;;;;;;;;;;;;6248874;22;19911;-89
2022/11/12 02:18:51;;;;;;;;;;;;;;;;;;6249384;22;20287;-89
2022/11/12 02:21:17;;;;;;;;;;;;;;;;;;6223762;22;20339;-88
2022/11/12 02:23:43;;;;;;;;;;;;;;;;;;6223968;22;19915;-88
2022/11/12 02:26:09;;;;;;;;;;;;;;;;;;6248988;22;19918;-88
2022/11/12 02:28:35;;;;;;;;;;;;;;;;;;6223697;22;20337;-88
2022/11/12 02:31:01;;;;;;;;;;;;;;;;;;6224112;22;19912;-88
2022/11/12 02:33:27;;;;;;;;;;;;;;;;;;6223969;22;19915;-88
2022/11/12 02:35:53;;;;;;;;;;;;;;;;;;6249352;22;19911;-88
2022/11/12 02:38:19;;;;;;;;;;;;;;;;;;6223519;22;19937;-88
2022/11/12 02:40:44;;;;;;;;;;;;;;;;;;6249505;22;20356;-88
2022/11/12 02:43:10;;;;;;;;;;;;;;;;;;6223508;22;19953;-88
2022/11/12 02:45:36;;;;;;;;;;;;;;;;;;6249000;22;19986;-89
2022/11/12 02:48:02;;;;;;;;;;;;;;;;;;6223308;22;20373;-88
2022/11/12 02:50:28;;;;;;;;;;;;;;;;;;6223300;22;19950;-88
2022/11/12 02:52:54;;;;;;;;;;;;;;;;;;6248923;22;19918;-88
2022/11/12 02:55:20;;;;;;;;;;;;;;;;;;6223869;22;19937;-88
2022/11/12 02:57:46;;;;;;;;;;;;;;;;;;6249382;22;19915;-88
2022/11/12 03:00:12;;;;;;;;;;;;;;;;;;6223892;22;19915;-89
2022/11/12 03:02:57;;;;;;;;;;;;;;;;;;6250969;22;19965;-88
2022/11/12 03:05:23;;;;;;;;;;;;;;;;;;6225767;22;19961;-89
2022/11/12 03:07:49;;;;;;;;;;;;;;;;;;6225548;22;19915;-88
2022/11/12 03:10:15;;;;;;;;;;;;;;;;;;6225445;22;19915;-88
2022/11/12 03:12:41;;;;;;;;;;;;;;;;;;6250995;22;20293;-88
2022/11/12 03:15:07;;;;;;;;;;;;;;;;;;6225290;22;19911;-88
2022/11/12 03:17:33;;;;;;;;;;;;;;;;;;6225002;22;19915;-88
2022/11/12 03:19:58;;;;;;;;;;;;;;;;;;6250517;22;20245;-88
2022/11/12 03:22:24;;;;;;;;;;;;;;;;;;6225274;22;19911;-88
2022/11/12 03:24:50;;;;;;;;;;;;;;;;;;6225384;22;19918;-88
2022/11/12 03:27:16;;;;;;;;;;;;;;;;;;6225309;22;20348;-88
2022/11/12 03:29:42;;;;;;;;;;;;;;;;;;6250595;22;19915;-87
2022/11/12 03:32:08;;;;;;;;;;;;;;;;;;6250577;22;19915;-88
2022/11/12 03:34:34;;;;;;;;;;;;;;;;;;6225254;22;20227;-87
2022/11/12 03:37:00;;;;;;;;;;;;;;;;;;6224847;22;19915;-88
2022/11/12 03:39:26;;;;;;;;;;;;;;;;;;6224832;22;19911;-88
2022/11/12 03:41:51;;;;;;;;;;;;;;;;;;6250407;22;20321;-89
2022/11/12 03:44:17;;;;;;;;;;;;;;;;;;6225473;22;20038;-89
2022/11/12 03:46:43;;;;;;;;;;;;;;;;;;6225195;22;19939;-88
2022/11/12 03:49:09;;;;;;;;;;;;;;;;;;6225003;22;19934;-89
2022/11/12 03:51:35;;;;;;;;;;;;;;;;;;6251681;22;19953;-89
2022/11/12 03:54:01;;;;;;;;;;;;;;;;;;6225218;22;19917;-88
2022/11/12 03:56:27;;;;;;;;;;;;;;;;;;6224697;22;19911;-89
2022/11/12 03:58:53;;;;;;;;;;;;;;;;;;6250351;22;20312;-89
2022/11/12 04:01:19;;;;;;;;;;;;;;;;;;6224999;22;19921;-88
2022/11/12 04:03:45;;;;;;;;;;;;;;;;;;6249833;22;19911;-88
2022/11/12 04:08:55;;;;;;;;;;;;;;;;;;6249569;22;19911;-88
2022/11/12 04:11:21;;;;;;;;;;;;;;;;;;6224612;22;20347;-88
2022/11/12 04:13:47;;;;;;;;;;;;;;;;;;6224348;22;19994;-88
2022/11/12 04:21:55;;;;;;;;;;;;;;;;;;6250555;22;19911;-87
2022/11/12 04:27:05;;;;;;;;;;;;;;;;;;6249581;22;20238;-88
2022/11/12 04:32:16;;;;;;;;;;;;;;;;;;6249935;22;19967;-88
2022/11/12 04:34:42;;;;;;;;;;;;;;;;;;6224119;22;20237;-88
2022/11/12 04:37:08;;;;;;;;;;;;;;;;;;6224234;22;19919;-87
2022/11/12 04:39:34;;;;;;;;;;;;;;;;;;6224333;22;20325;-88
2022/11/12 04:45:01;;;;;;;;;;;;;;;;;;6249565;22;19915;-87
2022/11/12 04:47:27;;;;;;;;;;;;;;;;;;6249493;22;19911;-88
2022/11/12 04:49:53;;;;;;;;;;;;;;;;;;6224603;22;20333;-88
2022/11/12 04:52:19;;;;;;;;;;;;;;;;;;6249812;22;19942;-88
2022/11/12 04:54:45;;;;;;;;;;;;;;;;;;6224091;22;19911;-87
2022/11/12 04:57:10;;;;;;;;;;;;;;;;;;6249371;22;19931;-87
2022/11/12 04:59:36;;;;;;;;;;;;;;;;;;6224202;22;20439;-87
2022/11/12 05:02:02;;;;;;;;;;;;;;;;;;6224339;22;19981;-88
2022/11/12 05:04:28;;;;;;;;;;;;;;;;;;6224001;22;19985;-89
2022/11/12 05:06:54;;;;;;;;;;;;;;;;;;6224462;22;20353;-88
2022/11/12 05:09:20;;;;;;;;;;;;;;;;;;6224356;22;19911;-89
2022/11/12 05:11:46;;;;;;;;;;;;;;;;;;6224233;22;20376;-88
2022/11/12 05:14:12;;;;;;;;;;;;;;;;;;6223958;22;19987;-88
2022/11/12 05:16:38;;;;;;;;;;;;;;;;;;6223750;22;20020;-88
2022/11/12 05:19:04;;;;;;;;;;;;;;;;;;6248918;22;19915;-88
2022/11/12 05:24:14;;;;;;;;;;;;;;;;;;6249512;22;19911;-88
2022/11/12 05:26:40;;;;;;;;;;;;;;;;;;6249215;22;19917;-88
2022/11/12 05:29:06;;;;;;;;;;;;;;;;;;6248947;22;19918;-89
2022/11/12 05:31:32;;;;;;;;;;;;;;;;;;6223712;22;20374;-88
2022/11/12 05:33:58;;;;;;;;;;;;;;;;;;6223784;22;19914;-88
2022/11/12 05:36:24;;;;;;;;;;;;;;;;;;6249322;22;20006;-88
2022/11/12 05:38:50;;;;;;;;;;;;;;;;;;6249242;22;19911;-88
2022/11/12 05:41:16;;;;;;;;;;;;;;;;;;6223443;22;20291;-88
2022/11/12 05:43:42;;;;;;;;;;;;;;;;;;6249177;22;19961;-88
2022/11/12 05:46:08;;;;;;;;;;;;;;;;;;6223765;22;19969;-89
2022/11/12 05:48:33;;;;;;;;;;;;;;;;;;6223947;22;19918;-88
2022/11/12 05:50:59;;;;;;;;;;;;;;;;;;6248970;22;19911;-89
2022/11/12 05:53:25;;;;;;;;;;;;;;;;;;6223797;22;19982;-88
2022/11/12 05:55:51;;;;;;;;;;;;;;;;;;6249005;22;19978;-88
2022/11/12 05:58:17;;;;;;;;;;;;;;;;;;6223449;22;19998;-88
2022/11/12 06:00:43;;;;;;;;;;;;;;;;;;6248706;22;19951;-88
2022/11/12 06:03:09;;;;;;;;;;;;;;;;;;6223717;22;19969;-88
2022/11/12 06:05:35;;;;;;;;;;;;;;;;;;6223682;22;20321;-90
2022/11/12 06:08:01;;;;;;;;;;;;;;;;;;6223517;22;19998;-89
2022/11/12 06:10:26;;;;;;;;;;;;;;;;;;6223750;22;20244;-88
2022/11/12 06:12:53;;;;;;;;;;;;;;;;;;6223822;22;19911;-88
2022/11/12 06:15:19;;;;;;;;;;;;;;;;;;6223493;22;19938;-89
2022/11/12 06:17:45;;;;;;;;;;;;;;;;;;6248818;22;20233;-88
2022/11/12 06:20:10;;;;;;;;;;;;;;;;;;6248901;22;19911;-87
2022/11/12 06:22:36;;;;;;;;;;;;;;;;;;6223821;22;20355;-88
2022/11/12 06:25:02;;;;;;;;;;;;;;;;;;6228092;22;19982;-88
2022/11/12 06:27:28;;;;;;;;;;;;;;;;;;6223603;22;19942;-88
2022/11/12 06:29:54;;;;;;;;;;;;;;;;;;6248816;22;19911;-88
2022/11/12 06:32:20;;;;;;;;;;;;;;;;;;6223443;22;20321;-88
2022/11/12 06:34:46;;;;;;;;;;;;;;;;;;6248698;22;20276;-88
2022/11/12 06:37:12;;;;;;;;;;;;;;;;;;6248867;22;19915;-87
2022/11/12 06:39:38;;;;;;;;;;;;;;;;;;6223503;22;19914;-88
2022/11/12 06:42:04;;;;;;;;;;;;;;;;;;6248694;22;20249;-89
2022/11/12 06:44:29;;;;;;;;;;;;;;;;;;6248653;22;19918;-88
2022/11/12 06:46:55;;;;;;;;;;;;;;;;;;6223235;22;19958;-88
2022/11/12 06:49:21;;;;;;;;;;;;;;;;;;6223394;22;20270;-87
2022/11/12 06:51:47;;;;;;;;;;;;;;;;;;6223019;22;19985;-87
2022/11/12 06:54:14;;;;;;;;;;;;;;;;;;6223110;22;19939;-86
2022/11/12 06:56:41;;;;;;;;;;;;;;;;;;6222776;22;19919;-87
2022/11/12 06:59:07;;;;;;;;;;;;;;;;;;6248418;22;20237;-88
2022/11/12 07:01:33;;;;;;;;;;;;;;;;;;6248260;22;19923;-87
2022/11/12 07:03:59;;;;;;;;;;;;;;;;;;6223276;22;19965;-87
2022/11/12 07:06:25;;;;;;;;;;;;;;;;;;6222914;22;19911;-87
2022/11/12 07:08:51;;;;;;;;;;;;;;;;;;6222853;22;19915;-87
2022/11/12 07:11:17;;;;;;;;;;;;;;;;;;6247949;22;20280;-87
2022/11/12 07:13:46;;;;;;;;;;;;;;;;;;6248286;22;19942;-87
2022/11/12 07:16:12;;;;;;;;;;;;;;;;;;6248086;22;19911;-87
2022/11/12 07:18:38;;;;;;;;;;;;;;;;;;6248606;22;20248;-88
2022/11/12 07:21:04;;;;;;;;;;;;;;;;;;6248257;22;19918;-88
2022/11/12 07:23:31;;;;;;;;;;;;;;;;;;6223335;22;19918;-88
2022/11/12 07:25:57;;;;;;;;;;;;;;;;;;6223169;22;19918;-89
2022/11/12 07:28:23;;;;;;;;;;;;;;;;;;6223085;22;20295;-88
2022/11/12 07:30:49;;;;;;;;;;;;;;;;;;6223218;22;19911;-88
2022/11/12 07:33:15;;;;;;;;;;;;;;;;;;6222913;22;20006;-88
2022/11/12 07:35:41;;;;;;;;;;;;;;;;;;6248672;22;20347;-88
2022/11/12 07:38:07;;;;;;;;;;;;;;;;;;6222877;22;20004;-88
2022/11/12 07:40:33;;;;;;;;;;;;;;;;;;6248613;22;19982;-88
2022/11/12 07:42:59;;;;;;;;;;;;;;;;;;6248493;22;20284;-87
2022/11/12 07:45:25;;;;;;;;;;;;;;;;;;6222972;22;20025;-88
2022/11/12 07:47:50;;;;;;;;;;;;;;;;;;6248854;22;19911;-88
2022/11/12 07:50:16;;;;;;;;;;;;;;;;;;6224548;22;19999;-87
2022/11/12 07:52:42;;;;;;;;;;;;;;;;;;6224588;22;19911;-88
2022/11/12 07:55:08;;;;;;;;;;;;;;;;;;6224419;22;19918;-88
2022/11/12 07:57:34;;;;;;;;;;;;;;;;;;6224612;22;20252;-88
2022/11/12 08:00:00;;;;;;;;;;;;;;;;;;6224863;22;19978;-88
2022/11/12 08:02:26;;;;;;;;;;;;;;;;;;6250363;22;20369;-88
2022/11/12 08:04:52;;;;;;;;;;;;;;;;;;6249806;22;20223;-88
2022/11/12 08:07:18;;;;;;;;;;;;;;;;;;6250528;22;19915;-90
2022/11/12 08:09:44;;;;;;;;;;;;;;;;;;6225038;22;19911;-88
2022/11/12 08:12:10;;;;;;;;;;;;;;;;;;6224728;22;19918;-88
2022/11/12 08:14:36;;;;;;;;;;;;;;;;;;6249540;22;19911;-88
2022/11/12 08:17:01;;;;;;;;;;;;;;;;;;6224332;22;20374;-87
2022/11/12 08:19:27;;;;;;;;;;;;;;;;;;6249579;22;19915;-88
2022/11/12 08:21:53;;;;;;;;;;;;;;;;;;6249741;22;19914;-88
2022/11/12 08:24:19;;;;;;;;;;;;;;;;;;6224889;22;19911;-89
2022/11/12 08:26:45;;;;;;;;;;;;;;;;;;6250549;22;19911;-89
2022/11/12 08:29:11;;;;;;;;;;;;;;;;;;6224230;22;19918;-90
2022/11/12 08:31:37;;;;;;;;;;;;;;;;;;6225126;22;19915;-90
2022/11/12 08:34:10;;;;;;;;;;;;;;;;;;6250647;22;19956;-87
2022/11/12 08:36:36;;;;;;;;;;;;;;;;;;6250175;22;19964;-88
2022/11/12 08:39:02;;;;;;;;;;;;;;;;;;6222244;22;20384;-87
2022/11/12 08:41:28;;;;;;;;;;;;;;;;;;6223894;22;19942;-87
2022/11/12 08:43:54;;;;;;;;;;;;;;;;;;6248632;22;19911;-87
2022/11/12 08:46:20;;;;;;;;;;;;;;;;;;6223737;22;19915;-87
2022/11/12 08:48:46;;;;;;;;;;;;;;;;;;6249287;22;19911;-87
2022/11/12 08:51:12;;;;;;;;;;;;;;;;;;6224064;22;20313;-86
2022/11/12 08:53:38;;;;;;;;;;;;;;;;;;6249488;22;19919;-88
2022/11/12 08:56:03;;;;;;;;;;;;;;;;;;6249297;22;19918;-88
2022/11/12 08:58:29;;;;;;;;;;;;;;;;;;6223377;22;19915;-87
2022/11/12 09:00:55;;;;;;;;;;;;;;;;;;6218549;22;19915;-88
2022/11/12 09:03:21;;;;;;;;;;;;;;;;;;6249642;22;19911;-90
2022/11/12 09:05:47;;;;;;;;;;;;;;;;;;6224605;22;19919;-89
2022/11/12 09:08:13;;;;;;;;;;;;;;;;;;6223358;22;19915;-86
2022/11/12 09:10:39;;;;;;;;;;;;;;;;;;6249068;22;19918;-87
2022/11/12 09:13:05;;;;;;;;;;;;;;;;;;6223814;22;19918;-86
2022/11/12 09:15:31;;;;;;;;;;;;;;;;;;6249086;22;19911;-86
2022/11/12 09:17:57;;;;;;;;;;;;;;;;;;6248686;22;20328;-86
2022/11/12 09:20:23;;;;;;;;;;;;;;;;;;6249025;22;20158;-87
2022/11/12 09:22:49;;;;;;;;;;;;;;;;;;6248756;22;19911;-86
2022/11/12 09:25:15;;;;;;;;;;;;;;;;;;6223595;22;19914;-90
2022/11/12 09:27:40;;;;;;;;;;;;;;;;;;6224593;22;19959;-91
2022/11/12 09:30:06;;;;;;;;;;;;;;;;;;6224286;22;19915;-88
2022/11/12 09:32:32;;;;;;;;;;;;;;;;;;6249485;22;19915;-89
2022/11/12 09:34:58;;;;;;;;;;;;;;;;;;6249090;22;19911;-89
2022/11/12 09:37:24;;;;;;;;;;;;;;;;;;6223449;22;19915;-89
2022/11/12 09:39:50;;;;;;;;;;;;;;;;;;6249037;22;19911;-89
2022/11/12 09:42:16;;;;;;;;;;;;;;;;;;6248999;22;20304;-88
2022/11/12 09:44:42;;;;;;;;;;;;;;;;;;6223524;22;20234;-88
2022/11/12 09:47:08;;;;;;;;;;;;;;;;;;6248543;22;19914;-85
2022/11/12 09:49:34;;;;;;;;;;;;;;;;;;6223209;22;20321;-86
2022/11/12 09:52:00;;;;;;;;;;;;;;;;;;6248496;22;19914;-85
2022/11/12 09:54:26;;;;;;;;;;;;;;;;;;6248541;22;20244;-86
2022/11/12 09:56:51;;;;;;;;;;;;;;;;;;6248332;22;19915;-86
2022/11/12 09:59:17;;;;;;;;;;;;;;;;;;6223619;22;19915;-87
2022/11/12 10:01:43;;;;;;;;;;;;;;;;;;6248799;22;19915;-86
2022/11/12 10:04:09;;;;;;;;;;;;;;;;;;6249226;22;20368;-86
2022/11/12 10:06:35;;;;;;;;;;;;;;;;;;6223087;22;19911;-90
2022/11/12 10:09:01;;;;;;;;;;;;;;;;;;6248304;22;19911;-89
2022/11/12 10:11:27;;;;;;;;;;;;;;;;;;6248181;22;20313;-87
2022/11/12 10:13:53;;;;;;;;;;;;;;;;;;6249273;22;20002;-90
2022/11/12 10:19:03;;;;;;;;;;;;;;;;;;6248417;22;19919;-86
2022/11/12 10:21:29;;;;;;;;;;;;;;;;;;6248534;22;19917;-87
2022/11/12 10:23:55;;;;;;;;;;;;;;;;;;6223173;22;19911;-87
2022/11/12 10:26:21;;;;;;;;;;;;;;;;;;6223043;22;20325;-89
2022/11/12 10:28:47;;;;;;;;;;;;;;;;;;6223771;22;19915;-89
2022/11/12 10:31:13;;;;;;;;;;;;;;;;;;6248458;22;19938;-89
2022/11/12 10:33:39;;;;;;;;;;;;;;;;;;6248510;22;19915;-88
2022/11/12 10:36:05;;;;;;;;;;;;;;;;;;6222961;22;19921;-88
2022/11/12 10:38:31;;;;;;;;;;;;;;;;;;6222538;22;19915;-87
2022/11/12 10:40:57;;;;;;;;;;;;;;;;;;6248296;22;19911;-86
2022/11/12 10:43:23;;;;;;;;;;;;;;;;;;6248049;22;19986;-87
2022/11/12 10:45:48;;;;;;;;;;;;;;;;;;6248460;22;19957;-87
2022/11/12 10:48:14;;;;;;;;;;;;;;;;;;6222656;22;19918;-87
2022/11/12 10:50:40;;;;;;;;;;;;;;;;;;6223144;22;19911;-89
2022/11/12 10:53:06;;;;;;;;;;;;;;;;;;6248360;22;20256;-90
2022/11/12 10:55:33;;;;;;;;;;;;;;;;;;6248754;22;19911;-90
2022/11/12 10:57:59;;;;;;;;;;;;;;;;;;6222926;22;19915;-88
2022/11/12 11:00:25;;;;;;;;;;;;;;;;;;6222812;22;19969;-87
2022/11/12 11:02:51;;;;;;;;;;;;;;;;;;6248129;22;19911;-87
2022/11/12 11:05:17;;;;;;;;;;;;;;;;;;6251656;22;19939;-89
2022/11/12 11:07:42;;;;;;;;;;;;;;;;;;6248304;22;19923;-88
2022/11/12 11:10:08;;;;;;;;;;;;;;;;;;6248338;22;19969;-89
2022/11/12 11:12:34;;;;;;;;;;;;;;;;;;6248179;22;19911;-87
2022/11/12 11:15:00;;;;;;;;;;;;;;;;;;6248019;22;19919;-87
2022/11/12 11:17:26;;;;;;;;;;;;;;;;;;6222783;22;20237;-89
2022/11/12 11:19:52;;;;;;;;;;;;;;;;;;6246398;22;19933;-88
2022/11/12 11:22:18;;;;;;;;;;;;;;;;;;6223724;22;19922;-88
2022/11/12 11:24:44;;;;;;;;;;;;;;;;;;6250231;22;19911;-88
2022/11/12 11:27:10;;;;;;;;;;;;;;;;;;6249952;22;19915;-88
2022/11/12 11:29:36;;;;;;;;;;;;;;;;;;6250150;22;19950;-87
2022/11/12 11:32:01;;;;;;;;;;;;;;;;;;6249748;22;20014;-88
2022/11/12 11:34:29;;;;;;;;;;;;;;;;;;6249905;22;19937;-91
2022/11/12 11:36:55;;;;;;;;;;;;;;;;;;6250940;22;19914;-91
2022/11/12 11:39:21;;;;;;;;;;;;;;;;;;6226601;22;19978;-90
2022/11/12 11:41:47;;;;;;;;;;;;;;;;;;6225017;22;19917;-87
2022/11/12 11:44:13;;;;;;;;;;;;;;;;;;6224336;22;19939;-87
2022/11/12 11:46:39;;;;;;;;;;;;;;;;;;6249645;22;20256;-86
2022/11/12 11:49:04;;;;;;;;;;;;;;;;;;6224691;22;19911;-87
2022/11/12 11:51:30;;;;;;;;;;;;;;;;;;6224321;22;19911;-86
2022/11/12 11:53:56;;;;;;;;;;;;;;;;;;6224301;22;19912;-86
2022/11/12 11:56:22;;;;;;;;;;;;;;;;;;6224682;22;19919;-85
2022/11/12 11:58:48;;;;;;;;;;;;;;;;;;6249532;22;20387;-85
2022/11/12 12:01:14;;;;;;;;;;;;;;;;;;6249634;22;19922;-85
2022/11/12 12:03:40;;;;;;;;;;;;;;;;;;6249408;22;19911;-85
2022/11/12 12:06:06;;;;;;;;;;;;;;;;;;6249321;22;20317;-86
2022/11/12 12:08:32;;;;;;;;;;;;;;;;;;6249466;22;19911;-85
2022/11/12 12:10:58;;;;;;;;;;;;;;;;;;6249473;22;19915;-86
2022/11/12 12:13:23;;;;;;;;;;;;;;;;;;6223979;22;19981;-86
2022/11/12 12:15:49;;;;;;;;;;;;;;;;;;6223890;22;20303;-85
2022/11/12 12:18:15;;;;;;;;;;;;;;;;;;6249341;22;19925;-87
2022/11/12 12:20:41;;;;;;;;;;;;;;;;;;6249521;22;19950;-87
2022/11/12 12:23:07;;;;;;;;;;;;;;;;;;6249504;22;19915;-87
2022/11/12 12:25:34;;;;;;;;;;;;;;;;;;6249622;22;20301;-86
2022/11/12 12:28:00;;;;;;;;;;;;;;;;;;6224181;22;20013;-86
2022/11/12 12:30:26;;;;;;;;;;;;;;;;;;6249448;22;20258;-86
2022/11/12 12:32:52;;;;;;;;;;;;;;;;;;6223729;22;20244;-86
2022/11/12 12:35:18;;;;;;;;;;;;;;;;;;6249380;22;19946;-87
2022/11/12 12:37:44;;;;;;;;;;;;;;;;;;6224052;22;20226;-86
2022/11/12 12:40:10;;;;;;;;;;;;;;;;;;6249850;22;20320;-85
2022/11/12 12:42:35;;;;;;;;;;;;;;;;;;6223701;22;19911;-85
2022/11/12 12:45:06;;;;;;;;;;;;;;;;;;6249036;22;20236;-85
2022/11/12 12:47:35;;;;;;;;;;;;;;;;;;6224451;22;20270;-85
2022/11/12 12:50:01;;;;;;;;;;;;;;;;;;6249167;22;19938;-85
2022/11/12 12:52:27;;;;;;;;;;;;;;;;;;6249102;22;19915;-87
2022/11/12 12:54:53;;;;;;;;;;;;;;;;;;6249049;22;19912;-85
2022/11/12 12:57:19;;;;;;;;;;;;;;;;;;6223864;22;19915;-87
2022/11/12 12:59:45;;;;;;;;;;;;;;;;;;6248977;22;19965;-86
2022/11/12 13:02:11;;;;;;;;;;;;;;;;;;6249042;22;19946;-86
2022/11/12 13:04:37;;;;;;;;;;;;;;;;;;6223823;22;19986;-86
2022/11/12 13:07:03;;;;;;;;;;;;;;;;;;6249034;22;19918;-86
2022/11/12 13:09:29;;;;;;;;;;;;;;;;;;6223890;22;19915;-86
2022/11/12 13:14:30;;;;;;;;;;;;;;;;;;6249071;22;19911;-86
2022/11/12 13:16:56;;;;;;;;;;;;;;;;;;6248680;22;19969;-87
2022/11/12 13:19:22;;;;;;;;;;;;;;;;;;6250140;22;19934;-85
2022/11/12 13:21:48;;;;;;;;;;;;;;;;;;6223909;22;20266;-86
2022/11/12 13:24:14;;;;;;;;;;;;;;;;;;6249869;22;19911;-86
2022/11/12 13:26:40;;;;;;;;;;;;;;;;;;6248812;22;19911;-86
2022/11/12 13:29:06;;;;;;;;;;;;;;;;;;6249116;22;19911;-87
2022/11/12 13:31:32;;;;;;;;;;;;;;;;;;6249035;22;19917;-87
2022/11/12 13:33:58;;;;;;;;;;;;;;;;;;6248942;22;19911;-87
2022/11/12 13:36:24;;;;;;;;;;;;;;;;;;6224053;22;19964;-87
2022/11/12 13:38:51;;;;;;;;;;;;;;;;;;6221326;22;19922;-87
2022/11/12 13:41:17;;;;;;;;;;;;;;;;;;6249228;22;19980;-87
2022/11/12 13:43:42;;;;;;;;;;;;;;;;;;6223594;22;19939;-87
2022/11/12 13:46:09;;;;;;;;;;;;;;;;;;6222804;22;19911;-87
2022/11/12 13:48:35;;;;;;;;;;;;;;;;;;6223330;22;19911;-87
2022/11/12 13:51:01;;;;;;;;;;;;;;;;;;6223207;22;20295;-87
2022/11/12 13:53:27;;;;;;;;;;;;;;;;;;6248528;22;19918;-85
2022/11/12 13:55:53;;;;;;;;;;;;;;;;;;6222817;22;19987;-87
2022/11/12 13:58:19;;;;;;;;;;;;;;;;;;6223597;22;19922;-87
2022/11/12 14:00:45;;;;;;;;;;;;;;;;;;6223463;22;19915;-89
2022/11/12 14:03:11;;;;;;;;;;;;;;;;;;6223064;22;19934;-87
2022/11/12 14:05:38;;;;;;;;;;;;;;;;;;6248497;22;19929;-86
2022/11/12 14:08:04;;;;;;;;;;;;;;;;;;6248109;22;19915;-87
2022/11/12 14:10:30;;;;;;;;;;;;;;;;;;6248466;22;19934;-86
2022/11/12 14:12:56;;;;;;;;;;;;;;;;;;6247873;22;20325;-86
2022/11/12 14:15:22;;;;;;;;;;;;;;;;;;6248487;22;19910;-86
2022/11/12 14:17:48;;;;;;;;;;;;;;;;;;6248084;22;19919;-85
2022/11/12 14:20:14;;;;;;;;;;;;;;;;;;6222844;22;19912;-86
2022/11/12 14:22:40;;;;;;;;;;;;;;;;;;6248104;22;19911;-86
2022/11/12 14:25:06;;;;;;;;;;;;;;;;;;6248366;22;19911;-87
2022/11/12 14:27:32;;;;;;;;;;;;;;;;;;6248249;22;20266;-87
2022/11/12 14:29:58;;;;;;;;;;;;;;;;;;6248181;22;20041;-87
2022/11/12 14:32:24;;;;;;;;;;;;;;;;;;6247810;22;19911;-88
2022/11/12 14:34:50;;;;;;;;;;;;;;;;;;6248254;22;19911;-87
2022/11/12 14:37:16;;;;;;;;;;;;;;;;;;6248060;22;19915;-87
2022/11/12 14:39:42;;;;;;;;;;;;;;;;;;6222995;22;19918;-87
2022/11/12 14:42:08;;;;;;;;;;;;;;;;;;6222625;22;19934;-87
2022/11/12 14:44:34;;;;;;;;;;;;;;;;;;6222959;22;19911;-88
2022/11/12 14:46:59;;;;;;;;;;;;;;;;;;6247912;22;19918;-85
2022/11/12 14:49:25;;;;;;;;;;;;;;;;;;6222721;22;19911;-86
2022/11/12 14:51:51;;;;;;;;;;;;;;;;;;6247684;22;19911;-86
2022/11/12 14:54:17;;;;;;;;;;;;;;;;;;6222721;22;19916;-85
2022/11/12 14:56:43;;;;;;;;;;;;;;;;;;6223119;22;19911;-85
2022/11/12 14:59:09;;;;;;;;;;;;;;;;;;6250176;22;19922;-86
2022/11/12 15:01:35;;;;;;;;;;;;;;;;;;6224612;22;19915;-85
2022/11/12 15:04:01;;;;;;;;;;;;;;;;;;6249951;22;19911;-84
2022/11/12 15:06:27;;;;;;;;;;;;;;;;;;6224623;22;20234;-87
2022/11/12 15:08:53;;;;;;;;;;;;;;;;;;6250258;22;19911;-86
2022/11/12 15:11:19;;;;;;;;;;;;;;;;;;6250076;22;19950;-86
2022/11/12 15:13:44;;;;;;;;;;;;;;;;;;6222498;22;19915;-85
2022/11/12 15:16:10;;;;;;;;;;;;;;;;;;6249659;22;19946;-85
2022/11/12 15:18:36;;;;;;;;;;;;;;;;;;6249681;22;19954;-85
2022/11/12 15:21:03;;;;;;;;;;;;;;;;;;6249658;22;19911;-85
2022/11/12 15:23:29;;;;;;;;;;;;;;;;;;6224442;22;19982;-85
2022/11/12 15:25:55;;;;;;;;;;;;;;;;;;6249999;22;20352;-85
2022/11/12 15:28:21;;;;;;;;;;;;;;;;;;6249791;22;19919;-85
2022/11/12 15:30:47;;;;;;;;;;;;;;;;;;6249887;22;19919;-85
2022/11/12 15:33:13;;;;;;;;;;;;;;;;;;6249713;22;19917;-85
2022/11/12 15:35:43;;;;;;;;;;;;;;;;;;6249628;22;20235;-85
2022/11/12 15:38:09;;;;;;;;;;;;;;;;;;6249509;22;19968;-86
2022/11/12 15:40:35;;;;;;;;;;;;;;;;;;6249747;22;20244;-85
2022/11/12 15:43:01;;;;;;;;;;;;;;;;;;6249615;22;19911;-85
2022/11/12 15:45:27;;;;;;;;;;;;;;;;;;6249624;22;19911;-85
2022/11/12 15:47:53;;;;;;;;;;;;;;;;;;6224545;22;19911;-86
2022/11/12 15:50:19;;;;;;;;;;;;;;;;;;6249393;22;20332;-85
2022/11/12 15:52:45;;;;;;;;;;;;;;;;;;6249405;22;19942;-85
2022/11/12 15:55:10;;;;;;;;;;;;;;;;;;6249544;22;19918;-86
2022/11/12 15:57:36;;;;;;;;;;;;;;;;;;6249423;22;19964;-90
2022/11/12 16:00:02;;;;;;;;;;;;;;;;;;6224795;22;19911;-86
2022/11/12 16:02:28;;;;;;;;;;;;;;;;;;6249796;22;19915;-86
2022/11/12 16:04:54;;;;;;;;;;;;;;;;;;6249488;22;19994;-87
2022/11/12 16:07:20;;;;;;;;;;;;;;;;;;6249561;22;19943;-86
2022/11/12 16:09:46;;;;;;;;;;;;;;;;;;6248616;22;20321;-84
2022/11/12 16:12:12;;;;;;;;;;;;;;;;;;6249417;22;19956;-85
2022/11/12 16:14:38;;;;;;;;;;;;;;;;;;6223875;22;20309;-84
2022/11/12 16:17:04;;;;;;;;;;;;;;;;;;6249157;22;20267;-84
2022/11/12 16:19:33;;;;;;;;;;;;;;;;;;6249110;22;19911;-85
2022/11/12 16:21:58;;;;;;;;;;;;;;;;;;6223745;22;19981;-85
2022/11/12 16:24:24;;;;;;;;;;;;;;;;;;6249105;22;20309;-85
2022/11/12 16:26:50;;;;;;;;;;;;;;;;;;6249200;22;19986;-85
2022/11/12 16:29:16;;;;;;;;;;;;;;;;;;6223780;22;20044;-85
2022/11/12 16:31:45;;;;;;;;;;;;;;;;;;6249049;22;20141;-85
2022/11/12 16:34:11;;;;;;;;;;;;;;;;;;6249142;22;19915;-85
2022/11/12 16:36:37;;;;;;;;;;;;;;;;;;6248923;22;20345;-85
2022/11/12 16:39:03;;;;;;;;;;;;;;;;;;6248893;22;19915;-84
2022/11/12 16:41:29;;;;;;;;;;;;;;;;;;6248916;22;19986;-85
2022/11/12 16:43:55;;;;;;;;;;;;;;;;;;6249227;22;19990;-84
2022/11/12 16:46:21;;;;;;;;;;;;;;;;;;6248892;22;20416;-85
2022/11/12 16:48:46;;;;;;;;;;;;;;;;;;6223660;22;20147;-85
2022/11/12 16:51:12;;;;;;;;;;;;;;;;;;6250654;22;20232;-84
2022/11/12 16:53:38;;;;;;;;;;;;;;;;;;6249294;22;19931;-85
2022/11/12 16:56:04;;;;;;;;;;;;;;;;;;6223524;22;20382;-85
2022/11/12 16:58:30;;;;;;;;;;;;;;;;;;6248940;22;19915;-85
2022/11/12 17:00:56;;;;;;;;;;;;;;;;;;6223257;22;19915;-85